Terminal Aerodrome Forecast
Issued by NWS Wilmington, OH

Home | Current Version | Previous Version | Text Only | Print | Product List | Glossary On
Versions: 1 2 3 4 5 6 7 8 9 10 11 12 13 14 15 16 17 18 19 20 21 22 23 24 25 26 27
000
FTUS41 KILN 290600 AAA
TAFCMH
TAF AMD
KCMH 290644Z 2907/3006 33003KT P6SM BKN040
      TEMPO 2907/2909 BKN025
     FM291500 29008KT P6SM BKN040
     FM300100 24004KT P6SM SCT050=

USA.gov is the U.S. government's official web portal to all federal, state and local government web resources and services.